BAW193 EGLL-KDFW
Flight info
| Callsign | BAW193 |
|---|---|
| Flight time | N/A |
| Altitude | 24000 |
| Route | CPT L9 DIDZA N14 ELNIF/N0487F340 DCT MEDOG DCT KRAGY DCT PEMOB DCT VATRY DCT RESNO/M085F350 DCT 56N020W 56N030W 56N040W 55N050W DCT LOMSI/N0496F360 N668A TAFFY DCT PQI DCT CABCI/N0478F380 Q29 NIPPY DCT WILET DCT REBBL DCT LEJOY DCT EMNEM Q71 GEFFS DCT TONIO DCT ARTUR DCT NIOLA DCT VLKNN Q30 IZAAC DCT YUYUN BEREE3 |
| Aircraft | A35K/H-SDE2E3GHIJ3J4J5LM1ORWXY/LB1D1 |
Departure
| Time | 2026-05-05 05:08 |
|---|---|
| Airport | London Heathrow Airport (EGLL) |
Arrival
| Time | N/A |
|---|---|
| Airport | Dallas Fort Worth International Airport (KDFW) |
| Time | Latitude | Longitude | Altitude | Speed | Heading |
|---|---|---|---|---|---|
| 2026-05-05 04:50 | 51.47264 | -0.46310 | 92 ft | 0 kts | 56° |
| 2026-05-05 04:54 | 51.47263 | -0.46311 | 92 ft | 1 kts | 56° |
| 2026-05-05 04:54 | 51.47254 | -0.46333 | 92 ft | 3 kts | 56° |
| 2026-05-05 04:54 | 51.47243 | -0.46360 | 92 ft | 2 kts | 56° |
| 2026-05-05 04:54 | 51.47235 | -0.46379 | 91 ft | 3 kts | 40° |
| 2026-05-05 04:55 | 51.47220 | -0.46391 | 90 ft | 3 kts | 351° |
| 2026-05-05 04:55 | 51.47202 | -0.46381 | 91 ft | 2 kts | 329° |
| 2026-05-05 04:55 | 51.47187 | -0.46366 | 94 ft | 1 kts | 325° |
| 2026-05-05 04:55 | 51.47182 | -0.46360 | 94 ft | 0 kts | 325° |
| 2026-05-05 04:59 | 51.47182 | -0.46361 | 94 ft | 1 kts | 325° |
| 2026-05-05 04:59 | 51.47212 | -0.46394 | 93 ft | 7 kts | 323° |
| 2026-05-05 04:59 | 51.47241 | -0.46462 | 96 ft | 8 kts | 286° |
| 2026-05-05 04:59 | 51.47240 | -0.46510 | 93 ft | 1 kts | 266° |
| 2026-05-05 05:00 | 51.47238 | -0.46566 | 96 ft | 8 kts | 267° |
| 2026-05-05 05:00 | 51.47235 | -0.46668 | 95 ft | 10 kts | 260° |
| 2026-05-05 05:00 | 51.47181 | -0.46720 | 95 ft | 11 kts | 186° |
| 2026-05-05 05:00 | 51.47085 | -0.46733 | 93 ft | 15 kts | 209° |
| 2026-05-05 05:01 | 51.47020 | -0.46851 | 96 ft | 14 kts | 202° |
| 2026-05-05 05:01 | 51.46917 | -0.46856 | 93 ft | 15 kts | 178° |
| 2026-05-05 05:01 | 51.46808 | -0.46857 | 92 ft | 15 kts | 180° |
| 2026-05-05 05:01 | 51.46750 | -0.46942 | 96 ft | 13 kts | 261° |
| 2026-05-05 05:02 | 51.46747 | -0.47093 | 95 ft | 15 kts | 269° |
| 2026-05-05 05:02 | 51.46746 | -0.47316 | 95 ft | 25 kts | 269° |
| 2026-05-05 05:02 | 51.46744 | -0.47597 | 93 ft | 25 kts | 269° |
| 2026-05-05 05:02 | 51.46743 | -0.47881 | 93 ft | 26 kts | 270° |
| 2026-05-05 05:03 | 51.46743 | -0.48168 | 93 ft | 25 kts | 270° |
| 2026-05-05 05:03 | 51.46742 | -0.48435 | 92 ft | 21 kts | 269° |
| 2026-05-05 05:03 | 51.46741 | -0.48640 | 97 ft | 8 kts | 269° |
| 2026-05-05 05:03 | 51.46736 | -0.48714 | 93 ft | 4 kts | 248° |
| 2026-05-05 05:04 | 51.46711 | -0.48741 | 95 ft | 5 kts | 195° |
| 2026-05-05 05:04 | 51.46672 | -0.48745 | 95 ft | 7 kts | 183° |
| 2026-05-05 05:04 | 51.46631 | -0.48752 | 93 ft | 6 kts | 189° |
| 2026-05-05 05:04 | 51.46591 | -0.48768 | 95 ft | 0 kts | 196° |
| 2026-05-05 05:05 | 51.46584 | -0.48771 | 94 ft | 4 kts | 197° |
| 2026-05-05 05:05 | 51.46536 | -0.48782 | 95 ft | 8 kts | 174° |
| 2026-05-05 05:06 | 51.46489 | -0.48728 | 97 ft | 9 kts | 122° |
| 2026-05-05 05:06 | 51.46479 | -0.48626 | 95 ft | 8 kts | 90° |
| 2026-05-05 05:06 | 51.46478 | -0.48616 | 96 ft | 0 kts | 91° |
| 2026-05-05 05:07 | 51.46478 | -0.48592 | 94 ft | 11 kts | 90° |
| 2026-05-05 05:07 | 51.46479 | -0.48122 | 96 ft | 78 kts | 89° |
| 2026-05-05 05:07 | 51.46482 | -0.46875 | 99 ft | 143 kts | 90° |
| 2026-05-05 05:07 | 51.46488 | -0.45679 | 115 ft | 178 kts | 92° |
| 2026-05-05 05:08 | 51.46475 | -0.43066 | 1167 ft | 173 kts | 88° |
| 2026-05-05 05:08 | 51.46440 | -0.41750 | 1581 ft | 187 kts | 92° |
| 2026-05-05 05:08 | 51.46025 | -0.39651 | 1871 ft | 211 kts | 117° |
| 2026-05-05 05:08 | 51.44928 | -0.37939 | 2180 ft | 233 kts | 148° |
| 2026-05-05 05:09 | 51.43330 | -0.37271 | 2639 ft | 247 kts | 178° |
| 2026-05-05 05:09 | 51.41646 | -0.37979 | 2916 ft | 264 kts | 214° |
| 2026-05-05 05:09 | 51.40428 | -0.40122 | 3498 ft | 263 kts | 247° |
| 2026-05-05 05:09 | 51.40079 | -0.42973 | 4200 ft | 256 kts | 277° |
| 2026-05-05 05:10 | 51.40342 | -0.45753 | 4905 ft | 256 kts | 283° |
| 2026-05-05 05:10 | 51.40700 | -0.48611 | 5529 ft | 260 kts | 283° |
| 2026-05-05 05:10 | 51.41045 | -0.51444 | 5908 ft | 264 kts | 282° |
| 2026-05-05 05:10 | 51.41383 | -0.54344 | 5998 ft | 265 kts | 282° |
| 2026-05-05 05:11 | 51.41715 | -0.57242 | 5996 ft | 265 kts | 282° |
| 2026-05-05 05:11 | 51.42046 | -0.60153 | 5993 ft | 266 kts | 282° |
| 2026-05-05 05:11 | 51.42373 | -0.63065 | 5992 ft | 266 kts | 282° |
| 2026-05-05 05:11 | 51.42699 | -0.65975 | 6069 ft | 267 kts | 281° |
| 2026-05-05 05:12 | 51.43032 | -0.68952 | 6495 ft | 268 kts | 281° |
| 2026-05-05 05:12 | 51.43360 | -0.71895 | 7143 ft | 269 kts | 281° |
| 2026-05-05 05:12 | 51.43690 | -0.74854 | 7813 ft | 271 kts | 281° |
| 2026-05-05 05:12 | 51.44040 | -0.77842 | 8470 ft | 273 kts | 282° |
| 2026-05-05 05:13 | 51.44409 | -0.80814 | 9105 ft | 277 kts | 282° |
| 2026-05-05 05:13 | 51.44785 | -0.83860 | 9767 ft | 280 kts | 281° |
| 2026-05-05 05:13 | 51.45163 | -0.86940 | 10318 ft | 287 kts | 281° |
| 2026-05-05 05:13 | 51.45556 | -0.90169 | 10584 ft | 303 kts | 281° |
| 2026-05-05 05:14 | 51.45947 | -0.93563 | 10827 ft | 319 kts | 280° |
| 2026-05-05 05:14 | 51.46352 | -0.97151 | 11097 ft | 333 kts | 280° |
| 2026-05-05 05:14 | 51.46775 | -1.00880 | 11369 ft | 347 kts | 281° |
| 2026-05-05 05:14 | 51.47220 | -1.04760 | 11641 ft | 360 kts | 281° |
| 2026-05-05 05:15 | 51.47673 | -1.08752 | 11893 ft | 372 kts | 281° |
| 2026-05-05 05:15 | 51.48141 | -1.12898 | 12145 ft | 383 kts | 280° |
| 2026-05-05 05:15 | 51.48631 | -1.17138 | 12515 ft | 389 kts | 282° |
| 2026-05-05 05:15 | 51.49490 | -1.21283 | 12958 ft | 393 kts | 297° |